Time;durP1;ratioP1;P1;durP2;ratioP2;P2;SDS_P1;SDS_P2;PMS_P1;PMS_P2;Temp;Humidity;BMP_temperature;BMP_pressure;BME280_temperature;BME280_humidity;BME280_pressure;Samples;Min_cycle;Max_cycle;Signal;HPM_P1;HPM_P2
2023/11/09 06:46:26;;;;;;;1.55;0.55;;;;;;;;;;10563941;27;20430;-85
2023/11/09 06:51:29;;;;;;;1.35;0.55;;;;;;;;;;10561755;28;20091;-86
2023/11/09 06:56:32;;;;;;;1.83;0.32;;;;;;;;;;10503010;22;20033;-79
2023/11/09 07:01:35;;;;;;;1.10;0.60;;;;;;;;;;10415030;28;20104;-80
2023/11/09 07:06:36;;;;;;;1.67;0.47;;;;;;;;;;10414048;28;20022;-81
2023/11/09 07:11:37;;;;;;;1.20;0.60;;;;;;;;;;10414339;28;20028;-79
2023/11/09 07:16:38;;;;;;;0.65;0.43;;;;;;;;;;10414679;28;20149;-79
2023/11/09 07:21:39;;;;;;;1.38;0.50;;;;;;;;;;10415072;28;20053;-80
2023/11/09 07:26:41;;;;;;;0.75;0.40;;;;;;;;;;10412957;28;20038;-80
2023/11/09 07:31:42;;;;;;;2.10;0.70;;;;;;;;;;10416889;28;20037;-80
2023/11/09 07:36:43;;;;;;;0.68;0.55;;;;;;;;;;10416566;28;20026;-80
2023/11/09 07:41:44;;;;;;;1.52;0.50;;;;;;;;;;10417769;28;20057;-80
2023/11/09 07:46:45;;;;;;;1.92;1.15;;;;;;;;;;10415940;28;20028;-80
2023/11/09 07:51:46;;;;;;;1.50;0.98;;;;;;;;;;10412427;28;20033;-80
2023/11/09 07:56:47;;;;;;;;;;;;;;;;;;10391897;28;20030;-80
2023/11/09 08:01:49;;;;;;;1.42;0.93;;;;;;;;;;10383257;28;20421;-80
2023/11/09 08:06:50;;;;;;;33.63;30.00;;;;;;;;;;10399783;28;20038;-80
2023/11/09 08:11:51;;;;;;;3.50;2.33;;;;;;;;;;10386662;28;20040;-80
2023/11/09 08:16:52;;;;;;;0.63;0.52;;;;;;;;;;10387459;28;20470;-79
2023/11/09 08:21:53;;;;;;;1.90;0.90;;;;;;;;;;10385793;28;20045;-78
2023/11/09 08:26:54;;;;;;;;;;;;;;;;;;10385064;28;20033;-81
2023/11/09 08:32:02;;;;;;;3.55;2.13;;;;;;;;;;10387520;28;19909;-79
2023/11/09 08:37:06;;;;;;;2.63;0.95;;;;;;;;;;10390507;28;20116;-79
2023/11/09 08:42:07;;;;;;;2.35;1.10;;;;;;;;;;10389126;28;20342;-80
2023/11/09 08:47:08;;;;;;;1.80;0.90;;;;;;;;;;10388058;28;20030;-79
2023/11/09 08:52:10;;;;;;;;;;;;;;;;;;10391460;28;20022;-80
2023/11/09 08:57:11;;;;;;;2.40;1.42;;;;;;;;;;10388710;28;19952;-80
2023/11/09 09:02:12;;;;;;;;;;;;;;;;;;10390738;28;20537;-79
2023/11/09 09:07:14;;;;;;;4.10;2.10;;;;;;;;;;10391807;28;19912;-79
2023/11/09 09:12:15;;;;;;;3.78;1.42;;;;;;;;;;10393079;28;20088;-79
2023/11/09 09:17:16;;;;;;;4.13;1.42;;;;;;;;;;10390070;28;20421;-78
2023/11/09 09:22:19;;;;;;;2.75;1.73;;;;;;;;;;10393862;28;20109;-79
2023/11/09 09:27:20;;;;;;;3.13;1.08;;;;;;;;;;10390862;28;20393;-79
2023/11/09 09:32:21;;;;;;;1.92;1.10;;;;;;;;;;10390948;28;20033;-79
2023/11/09 09:37:22;;;;;;;1.80;0.85;;;;;;;;;;10395225;28;20029;-79
2023/11/09 09:42:24;;;;;;;3.90;1.60;;;;;;;;;;10397465;28;20034;-78
2023/11/09 09:47:25;;;;;;;4.38;1.70;;;;;;;;;;10387604;28;20022;-80
2023/11/09 09:52:27;;;;;;;4.28;1.90;;;;;;;;;;10389331;28;20493;-79
2023/11/09 09:57:28;;;;;;;2.03;1.40;;;;;;;;;;10386395;28;20114;-79
2023/11/09 10:02:30;;;;;;;5.03;1.48;;;;;;;;;;10388803;28;20057;-79
2023/11/09 10:07:34;;;;;;;3.40;1.15;;;;;;;;;;10385604;28;20030;-82
2023/11/09 10:12:39;;;;;;;4.18;1.70;;;;;;;;;;10383183;28;20034;-79
2023/11/09 10:17:40;;;;;;;4.20;1.45;;;;;;;;;;10383034;28;20397;-79
2023/11/09 10:22:41;;;;;;;;;;;;;;;;;;10385015;28;20068;-79
2023/11/09 10:27:42;;;;;;;5.70;2.60;;;;;;;;;;10383116;28;19915;-78
2023/11/09 10:32:44;;;;;;;4.32;2.10;;;;;;;;;;10383610;28;20041;-79
2023/11/09 10:37:46;;;;;;;6.40;2.13;;;;;;;;;;10385638;28;20026;-79
2023/11/09 10:42:48;;;;;;;9.57;5.53;;;;;;;;;;10399947;28;20466;-78
2023/11/09 10:47:52;;;;;;;5.63;2.58;;;;;;;;;;10386964;28;20093;-79
2023/11/09 10:52:53;;;;;;;4.97;2.13;;;;;;;;;;10383346;28;20026;-79
2023/11/09 10:57:54;;;;;;;7.20;3.08;;;;;;;;;;10381220;28;20125;-79
2023/11/09 11:02:55;;;;;;;;;;;;;;;;;;10383631;28;20090;-81
2023/11/09 11:07:59;;;;;;;7.05;3.08;;;;;;;;;;10383660;28;19905;-79
2023/11/09 11:13:03;;;;;;;6.63;3.20;;;;;;;;;;10384685;28;20030;-79
2023/11/09 11:18:17;;;;;;;5.47;2.85;;;;;;;;;;10381578;28;20037;-79
2023/11/09 11:23:29;;;;;;;5.70;3.00;;;;;;;;;;10380399;28;20034;-78
2023/11/09 11:28:31;;;;;;;8.30;3.38;;;;;;;;;;10376560;28;20068;-79
2023/11/09 11:33:35;;;;;;;5.53;3.10;;;;;;;;;;10383821;28;20034;-79
2023/11/09 11:38:36;;;;;;;5.50;2.63;;;;;;;;;;10384650;28;20030;-78
2023/11/09 11:43:38;;;;;;;8.05;3.75;;;;;;;;;;10384749;28;20111;-81
2023/11/09 11:48:44;;;;;;;5.88;3.20;;;;;;;;;;10385714;28;20076;-80
2023/11/09 11:53:52;;;;;;;6.78;3.10;;;;;;;;;;10389629;28;20501;-80
2023/11/09 11:58:57;;;;;;;10.85;3.60;;;;;;;;;;10391007;28;20034;-80
2023/11/09 12:03:58;;;;;;;6.80;3.42;;;;;;;;;;10383581;28;20028;-77
2023/11/09 12:09:01;;;;;;;7.53;3.20;;;;;;;;;;10384111;28;20026;-77
2023/11/09 12:14:04;;;;;;;5.55;2.40;;;;;;;;;;10385991;28;20030;-80
2023/11/09 12:19:06;;;;;;;6.05;2.88;;;;;;;;;;10383765;28;20081;-80
2023/11/09 12:24:12;;;;;;;5.53;2.55;;;;;;;;;;10394396;28;20026;-77
2023/11/09 12:29:15;;;;;;;3.70;2.33;;;;;;;;;;10396726;28;20022;-76
2023/11/09 12:34:18;;;;;;;5.15;2.38;;;;;;;;;;10392829;28;20515;-77
2023/11/09 12:39:40;;;;;;;5.50;2.55;;;;;;;;;;10392459;28;20033;-77
2023/11/09 12:44:44;;;;;;;3.70;2.05;;;;;;;;;;10389864;28;20034;-78
2023/11/09 12:49:47;;;;;;;6.53;2.45;;;;;;;;;;10397898;28;20089;-77
2023/11/09 12:54:48;;;;;;;4.90;2.50;;;;;;;;;;10415183;22;20038;-82
2023/11/09 12:59:51;;;;;;;6.03;2.42;;;;;;;;;;10382999;28;20053;-81
2023/11/09 13:04:53;;;;;;;5.30;2.10;;;;;;;;;;10384022;28;20033;-82
2023/11/09 13:10:18;;;;;;;4.90;2.35;;;;;;;;;;10386572;28;20076;-82
2023/11/09 13:15:36;;;;;;;5.75;2.20;;;;;;;;;;10385101;28;20018;-83
2023/11/09 13:20:37;;;;;;;5.22;2.00;;;;;;;;;;10382953;28;20477;-82
2023/11/09 13:25:39;;;;;;;7.03;2.05;;;;;;;;;;10385600;28;20096;-83
2023/11/09 13:30:51;;;;;;;5.82;2.40;;;;;;;;;;10392847;28;20409;-83
2023/11/09 13:35:54;;;;;;;6.63;2.35;;;;;;;;;;10399420;28;20026;-82
2023/11/09 13:41:09;;;;;;;6.75;2.25;;;;;;;;;;10404797;28;20057;-81
2023/11/09 13:46:14;;;;;;;7.03;2.03;;;;;;;;;;10404464;28;20069;-82
2023/11/09 13:51:15;;;;;;;7.25;2.47;;;;;;;;;;10388040;28;20105;-82
2023/11/09 14:01:59;;;;;;;6.68;2.30;;;;;;;;;;10402104;28;20064;-82
2023/11/09 14:07:02;;;;;;;6.00;2.00;;;;;;;;;;10398793;28;20037;-83
2023/11/09 14:12:12;;;;;;;8.60;2.47;;;;;;;;;;10395349;28;20034;-83
2023/11/09 14:17:24;;;;;;;4.45;1.90;;;;;;;;;;10394846;28;20466;-82
2023/11/09 14:22:28;;;;;;;6.28;2.05;;;;;;;;;;10395537;28;20060;-84
2023/11/09 14:27:29;;;;;;;6.05;2.03;;;;;;;;;;10372906;28;20026;-83
2023/11/09 14:32:33;;;;;;;6.82;1.70;;;;;;;;;;10388295;28;20033;-83
2023/11/09 14:37:36;;;;;;;6.97;2.30;;;;;;;;;;10387396;28;20097;-84
2023/11/09 14:42:37;;;;;;;5.55;2.20;;;;;;;;;;10383814;28;20057;-84
2023/11/09 14:47:42;;;;;;;5.15;1.88;;;;;;;;;;10386748;28;20030;-84
2023/11/09 14:53:03;;;;;;;6.50;1.85;;;;;;;;;;10392378;28;20032;-85
2023/11/09 14:58:23;;;;;;;5.10;1.70;;;;;;;;;;10389085;28;20131;-84
2023/11/09 15:03:26;;;;;;;6.25;1.80;;;;;;;;;;10387486;28;20029;-84
2023/11/09 15:08:37;;;;;;;6.65;2.25;;;;;;;;;;10398641;28;20030;-83
2023/11/09 15:13:38;;;;;;;7.05;2.50;;;;;;;;;;10400637;28;20509;-85
2023/11/09 15:18:42;;;;;;;6.32;1.80;;;;;;;;;;10402986;28;20022;-84
2023/11/09 15:23:44;;;;;;;11.45;4.15;;;;;;;;;;10403759;28;20481;-86
2023/11/09 15:28:47;;;;;;;6.50;2.80;;;;;;;;;;10412576;28;20026;-85
2023/11/09 15:33:49;;;;;;;6.78;2.25;;;;;;;;;;10420167;28;20046;-84
2023/11/09 15:38:57;;;;;;;9.10;2.70;;;;;;;;;;10429388;28;20053;-85
2023/11/09 15:44:00;;;;;;;7.32;2.40;;;;;;;;;;10429663;28;20045;-84
2023/11/09 15:49:07;;;;;;;5.20;2.10;;;;;;;;;;10409297;28;20149;-83
2023/11/09 15:54:09;;;;;;;7.82;2.75;;;;;;;;;;10389166;28;20032;-84
2023/11/09 15:59:19;;;;;;;8.38;3.30;;;;;;;;;;10407469;28;20470;-83
2023/11/09 16:04:20;;;;;;;5.93;2.47;;;;;;;;;;10421035;28;20025;-83
2023/11/09 16:09:27;;;;;;;7.60;2.20;;;;;;;;;;10420701;28;20034;-83
2023/11/09 16:14:28;;;;;;;8.18;2.30;;;;;;;;;;10405933;28;20467;-83
2023/11/09 16:19:29;;;;;;;;;;;;;;;;;;10417083;28;20010;-82
2023/11/09 16:24:31;;;;;;;6.68;2.70;;;;;;;;;;10406444;28;19910;-81
2023/11/09 16:29:33;;;;;;;8.93;2.70;;;;;;;;;;10402495;28;20030;-82
2023/11/09 16:34:41;;;;;;;8.32;2.83;;;;;;;;;;10402254;28;20030;-84
2023/11/09 16:39:44;;;;;;;7.82;3.08;;;;;;;;;;10400478;28;20032;-83
2023/11/09 16:44:53;;;;;;;8.48;3.25;;;;;;;;;;10400713;28;20026;-83
2023/11/09 16:49:57;;;;;;;7.65;3.25;;;;;;;;;;10407577;28;20033;-83
2023/11/09 16:54:59;;;;;;;7.85;3.08;;;;;;;;;;10401210;28;20044;-84
2023/11/09 17:00:00;;;;;;;;;;;;;;;;;;10400669;28;20103;-83
2023/11/09 17:05:02;;;;;;;7.50;3.10;;;;;;;;;;10403209;28;19909;-83
2023/11/09 17:10:04;;;;;;;6.75;2.42;;;;;;;;;;10402327;28;20065;-83
2023/11/09 17:15:08;;;;;;;7.07;2.65;;;;;;;;;;10399635;28;20022;-82
2023/11/09 17:20:10;;;;;;;5.47;2.30;;;;;;;;;;10390100;28;20033;-81
2023/11/09 17:25:13;;;;;;;5.90;2.05;;;;;;;;;;10388645;28;20560;-81
2023/11/09 17:30:14;;;;;;;9.43;2.80;;;;;;;;;;10386945;28;20053;-82
2023/11/09 17:35:15;;;;;;;7.93;2.58;;;;;;;;;;10385180;28;20025;-81
2023/11/09 17:40:16;;;;;;;;;;;;;;;;;;10386853;28;20128;-81
2023/11/09 17:45:17;;;;;;;;;;;;;;;;;;10386725;28;19999;-81
2023/11/09 17:50:20;;;;;;;6.35;2.60;;;;;;;;;;10387285;28;20312;-81
2023/11/09 17:55:21;;;;;;;7.68;2.83;;;;;;;;;;10387617;28;20052;-82
2023/11/09 18:00:22;;;;;;;10.77;3.10;;;;;;;;;;10386490;28;20037;-81
2023/11/09 18:05:24;;;;;;;;;;;;;;;;;;10387555;28;20025;-82
2023/11/09 18:10:26;;;;;;;8.77;3.00;;;;;;;;;;10385232;28;19906;-81
2023/11/09 18:15:27;;;;;;;6.05;2.20;;;;;;;;;;10383754;28;20034;-81
2023/11/09 18:20:33;;;;;;;;;;;;;;;;;;10384240;28;20033;-81
2023/11/09 18:25:34;;;;;;;5.57;2.25;;;;;;;;;;10384916;28;19965;-81
2023/11/09 18:30:35;;;;;;;;;;;;;;;;;;10386644;28;20025;-81
2023/11/09 18:35:36;;;;;;;4.85;2.13;;;;;;;;;;10390002;28;19905;-80
2023/11/09 18:40:37;;;;;;;4.72;1.83;;;;;;;;;;10386105;28;20034;-81
2023/11/09 18:45:40;;;;;;;;;;;;;;;;;;10384936;28;20093;-81
2023/11/09 18:50:41;;;;;;;4.38;1.95;;;;;;;;;;10383278;28;19932;-81
2023/11/09 18:55:42;;;;;;;;;;;;;;;;;;10383922;28;20440;-81
2023/11/09 19:00:44;;;;;;;6.43;2.20;;;;;;;;;;10384402;28;19905;-81
2023/11/09 19:05:45;;;;;;;6.20;2.00;;;;;;;;;;10384531;28;20037;-82
2023/11/09 19:10:45;;;;;;;;;;;;;;;;;;10384266;28;20028;-81
2023/11/09 19:15:47;;;;;;;4.40;1.63;;;;;;;;;;10384100;28;19912;-81
2023/11/09 19:20:51;;;;;;;4.43;1.65;;;;;;;;;;10384850;28;20026;-81
2023/11/09 19:25:56;;;;;;;7.20;1.58;;;;;;;;;;10385565;28;20163;-81
2023/11/09 19:31:04;;;;;;;5.03;2.10;;;;;;;;;;10384810;28;20532;-81
2023/11/09 19:36:05;;;;;;;5.82;1.75;;;;;;;;;;10385176;28;20022;-81
2023/11/09 19:41:06;;;;;;;5.57;1.45;;;;;;;;;;10384039;28;20026;-81
2023/11/09 19:46:08;;;;;;;3.80;1.45;;;;;;;;;;10388949;28;20026;-84
2023/11/09 19:51:10;;;;;;;;;;;;;;;;;;10391527;28;20033;-84
2023/11/09 19:56:12;;;;;;;4.18;1.60;;;;;;;;;;10397221;28;19913;-84
2023/11/09 20:01:14;;;;;;;2.33;1.27;;;;;;;;;;10395759;28;20030;-84
2023/11/09 20:06:15;;;;;;;3.13;1.13;;;;;;;;;;10394909;28;20053;-84
